createdAt,value
2022-12-25T00:01:35.785Z,101144.94
2022-12-25T00:04:05.124Z,101144.06
2022-12-25T00:06:33.072Z,101146.66
2022-12-25T00:09:00.955Z,101156.09
2022-12-25T00:11:28.827Z,101163.84
2022-12-25T00:13:56.665Z,101154.38
2022-12-25T00:16:26.655Z,101169.84
2022-12-25T00:18:55.352Z,101172.41
2022-12-25T00:21:28.053Z,101168.94
2022-12-25T00:23:56.421Z,101174.97
2022-12-25T00:26:25.174Z,101184.44
2022-12-25T00:28:54.227Z,101179.25
2022-12-25T00:31:22.773Z,101191.31
2022-12-25T00:33:54.447Z,101186.13
2022-12-25T00:36:24.627Z,101198.22
2022-12-25T00:38:52.546Z,101205.13
2022-12-25T00:41:43.099Z,101212.88
2022-12-25T00:44:13.565Z,101210.25
2022-12-25T00:46:42.262Z,101211.97
2022-12-25T00:49:10.649Z,101223.19
2022-12-25T00:51:40.028Z,101230.91
2022-12-25T00:54:07.979Z,101236.94
2022-12-25T00:56:35.865Z,101234.38
2022-12-25T00:59:03.721Z,101236.94
2022-12-25T01:01:31.925Z,101245.56
2022-12-25T01:04:00.454Z,101247.28
2022-12-25T01:06:28.816Z,101249.00
2022-12-25T01:09:15.336Z,101250.75
2022-12-25T01:11:43.206Z,101261.94
2022-12-25T01:14:11.309Z,101255.03
2022-12-25T01:16:39.884Z,101267.97
2022-12-25T01:19:07.927Z,101272.28
2022-12-25T01:21:36.517Z,101278.31
2022-12-25T01:24:06.824Z,101270.56
2022-12-25T01:26:34.809Z,101275.75
2022-12-25T01:29:03.526Z,101276.59
2022-12-25T01:31:31.452Z,101282.63
2022-12-25T01:33:59.393Z,101279.19
2022-12-25T01:36:28.041Z,101277.47
2022-12-25T01:38:55.905Z,101280.06
2022-12-25T01:41:26.294Z,101280.03
2022-12-25T01:44:01.071Z,101278.34
2022-12-25T01:46:29.219Z,101269.72
2022-12-25T01:48:59.192Z,101280.91
2022-12-25T01:51:31.093Z,101273.16
2022-12-25T01:54:01.269Z,101277.44
2022-12-25T01:56:31.195Z,101281.78
2022-12-25T01:58:59.683Z,101271.44
2022-12-25T02:01:27.747Z,101280.03
2022-12-25T02:03:58.187Z,101284.34
2022-12-25T02:06:26.634Z,101284.34
2022-12-25T02:08:54.462Z,101278.31
2022-12-25T02:11:36.209Z,101284.34
2022-12-25T02:14:05.462Z,101285.22
2022-12-25T02:16:58.147Z,101291.22
2022-12-25T02:19:33.249Z,101283.50
2022-12-25T02:22:08.300Z,101280.03
2022-12-25T02:24:50.832Z,101283.47
2022-12-25T02:27:25.161Z,101286.88
2022-12-25T02:30:01.034Z,101297.22
2022-12-25T02:32:32.046Z,101296.34
2022-12-25T02:35:01.806Z,101296.31
2022-12-25T02:37:34.800Z,101307.47
2022-12-25T02:40:02.344Z,101304.88
2022-12-25T02:42:54.177Z,101296.25
2022-12-25T02:45:46.647Z,101298.81
2022-12-25T02:48:34.090Z,101299.63
2022-12-25T02:51:22.481Z,101298.75
2022-12-25T02:54:10.742Z,101298.66
2022-12-25T02:56:58.414Z,101297.81
2022-12-25T02:59:45.614Z,101289.19
2022-12-25T03:02:33.887Z,101295.19
2022-12-25T03:05:21.674Z,101296.88
2022-12-25T03:07:49.566Z,101306.28
2022-12-25T03:10:35.196Z,101298.53
2022-12-25T03:13:06.478Z,101308.88
2022-12-25T03:15:52.844Z,101313.94
2022-12-25T03:18:24.986Z,101329.44
2022-12-25T03:21:10.857Z,101319.97
2022-12-25T03:23:58.131Z,101321.75
2022-12-25T03:26:43.938Z,101326.81
2022-12-25T03:29:32.071Z,101323.34
2022-12-25T03:32:07.644Z,101334.47
2022-12-25T03:34:58.664Z,101339.56
2022-12-25T03:37:50.030Z,101343.06
2022-12-25T03:40:42.389Z,101350.72
2022-12-25T03:43:38.431Z,101348.09
2022-12-25T03:46:28.696Z,101352.38
2022-12-25T03:49:20.473Z,101348.94
2022-12-25T03:52:12.696Z,101349.66
2022-12-25T03:54:58.928Z,101348.81
2022-12-25T03:57:44.217Z,101353.94
2022-12-25T04:00:30.324Z,101361.59
2022-12-25T04:03:15.518Z,101355.69
2022-12-25T04:06:00.785Z,101350.41
2022-12-25T04:08:52.507Z,101366.81
2022-12-25T04:11:38.010Z,101360.78
2022-12-25T04:14:23.354Z,101363.34
2022-12-25T04:17:08.638Z,101349.59
2022-12-25T04:19:53.912Z,101354.72
2022-12-25T04:22:39.125Z,101349.50
2022-12-25T04:25:26.612Z,101341.78
2022-12-25T04:28:11.894Z,101344.19
2022-12-25T04:30:57.293Z,101351.81
2022-12-25T04:33:42.551Z,101350.94
2022-12-25T04:36:10.410Z,101342.22
2022-12-25T04:38:39.694Z,101347.38
2022-12-25T04:41:10.130Z,101355.97
2022-12-25T04:43:37.964Z,101353.28
2022-12-25T04:46:06.201Z,101353.22
2022-12-25T04:48:36.700Z,101354.09
2022-12-25T04:51:15.117Z,101349.84
2022-12-25T04:53:43.758Z,101354.00
2022-12-25T04:56:13.259Z,101343.63
2022-12-25T04:58:41.529Z,101336.75
2022-12-25T05:01:09.941Z,101347.75
2022-12-25T05:03:38.233Z,101329.59
2022-12-25T05:06:07.407Z,101338.00
2022-12-25T05:08:35.904Z,101350.91
2022-12-25T05:11:07.314Z,101353.41
2022-12-25T05:13:36.623Z,101345.81
2022-12-25T05:16:06.828Z,101344.88
2022-12-25T05:18:34.835Z,101341.50
2022-12-25T05:21:02.978Z,101332.88
2022-12-25T05:23:30.949Z,101327.81
2022-12-25T05:25:59.633Z,101314.94
2022-12-25T05:28:27.494Z,101310.56
2022-12-25T05:30:58.790Z,101319.91
2022-12-25T05:33:26.739Z,101312.09
2022-12-25T05:35:54.636Z,101302.56
2022-12-25T05:38:22.504Z,101294.88
2022-12-25T05:40:52.455Z,101288.88
2022-12-25T05:43:20.446Z,101299.13
2022-12-25T05:45:48.311Z,101299.16
2022-12-25T05:48:17.627Z,101294.81
2022-12-25T05:50:45.902Z,101294.81
2022-12-25T05:53:15.427Z,101279.41
2022-12-25T05:55:44.558Z,101276.84
2022-12-25T05:58:13.500Z,101274.22
2022-12-25T06:00:42.138Z,101271.81
2022-12-25T06:03:10.071Z,101271.78
2022-12-25T06:05:40.302Z,101268.31
2022-12-25T06:08:08.201Z,101281.88
2022-12-25T06:10:36.044Z,101260.47
2022-12-25T06:13:04.040Z,101264.72
2022-12-25T06:15:31.938Z,101257.06
2022-12-25T06:18:01.461Z,101259.63
2022-12-25T06:20:30.236Z,101272.34
2022-12-25T06:23:00.046Z,101275.81
2022-12-25T06:25:28.041Z,101268.34
2022-12-25T06:27:56.015Z,101267.41
2022-12-25T06:30:23.980Z,101269.81
2022-12-25T06:32:51.950Z,101264.53
2022-12-25T06:35:19.896Z,101265.47
2022-12-25T06:37:47.851Z,101278.31
2022-12-25T06:40:17.466Z,101267.41
2022-12-25T06:42:45.425Z,101263.97
2022-12-25T06:45:14.037Z,101258.84
2022-12-25T06:47:41.984Z,101257.91
2022-12-25T06:50:09.978Z,101253.78
2022-12-25T06:52:37.856Z,101258.22
2022-12-25T06:55:06.378Z,101247.06
2022-12-25T06:57:35.867Z,101251.31
2022-12-25T07:00:04.466Z,101245.19
2022-12-25T07:02:33.749Z,101244.22
2022-12-25T07:05:02.208Z,101237.28
2022-12-25T07:07:30.317Z,101238.91
2022-12-25T07:09:58.321Z,101238.78
2022-12-25T07:12:26.291Z,101246.31
2022-12-25T07:14:56.640Z,101247.00
2022-12-25T07:17:24.813Z,101251.28
2022-12-25T07:19:52.725Z,101251.28
2022-12-25T07:22:20.756Z,101249.59
2022-12-25T07:24:48.725Z,101254.63
2022-12-25T07:27:16.643Z,101260.44
2022-12-25T07:29:44.475Z,101255.38
2022-12-25T07:32:13.824Z,101248.47
2022-12-25T07:34:41.757Z,101252.69
2022-12-25T07:37:09.673Z,101238.97
2022-12-25T07:39:37.556Z,101258.56
2022-12-25T07:42:05.532Z,101252.56
2022-12-25T07:44:33.429Z,101262.75
2022-12-25T07:47:01.315Z,101257.66
2022-12-25T07:49:30.550Z,101259.28
2022-12-25T07:51:58.454Z,101259.22
2022-12-25T07:54:26.477Z,101262.72
2022-12-25T07:56:54.657Z,101275.53
2022-12-25T07:59:22.613Z,101274.69
2022-12-25T08:01:51.168Z,101268.09
2022-12-25T08:04:19.220Z,101262.88
2022-12-25T08:06:48.649Z,101267.44
2022-12-25T08:09:16.641Z,101267.28
2022-12-25T08:11:46.675Z,101278.41
2022-12-25T08:14:14.952Z,101277.81
2022-12-25T08:16:42.888Z,101284.69
2022-12-25T08:19:10.995Z,101289.09
2022-12-25T08:21:39.218Z,101284.09
2022-12-25T08:24:08.855Z,101278.09
2022-12-25T08:26:36.746Z,101285.84
2022-12-25T08:29:04.699Z,101270.53
2022-12-25T08:31:34.141Z,101269.50
2022-12-25T08:34:03.725Z,101262.06
2022-12-25T08:36:31.975Z,101245.81
2022-12-25T08:39:03.119Z,101245.25
2022-12-25T08:41:32.850Z,101253.66
2022-12-25T08:44:00.720Z,101246.00
2022-12-25T08:46:28.675Z,101252.75
2022-12-25T08:48:57.420Z,101254.56
2022-12-25T08:51:26.056Z,101244.53
2022-12-25T08:53:54.899Z,101243.63
2022-12-25T08:56:22.729Z,101241.75
2022-12-25T08:58:52.041Z,101235.88
2022-12-25T09:01:20.089Z,101230.78
2022-12-25T09:03:48.126Z,101224.84
2022-12-25T09:06:17.254Z,101223.84
2022-12-25T09:08:49.111Z,101214.59
2022-12-25T09:11:19.549Z,101221.53
2022-12-25T09:13:47.661Z,101220.56
2022-12-25T09:16:19.115Z,101220.69
2022-12-25T09:18:47.076Z,101226.03
2022-12-25T09:21:16.342Z,101232.91
2022-12-25T09:23:44.327Z,101223.53
2022-12-25T09:26:14.201Z,101227.91
2022-12-25T09:28:46.798Z,101226.38
2022-12-25T09:31:19.875Z,101226.22
2022-12-25T09:33:48.220Z,101226.13
2022-12-25T09:36:16.135Z,101230.44
2022-12-25T09:38:44.067Z,101231.34
2022-12-25T09:41:15.981Z,101228.81
2022-12-25T09:43:48.873Z,101224.59
2022-12-25T09:46:21.457Z,101221.34
2022-12-25T09:48:56.887Z,101224.63
2022-12-25T09:51:26.654Z,101227.25
2022-12-25T09:53:59.979Z,101226.50
2022-12-25T09:56:27.855Z,101217.06
2022-12-25T09:58:55.964Z,101220.47
2022-12-25T10:01:31.984Z,101213.78
2022-12-25T10:04:23.509Z,101219.75
2022-12-25T10:06:59.583Z,101208.66
2022-12-25T10:09:36.879Z,101214.69
2022-12-25T10:12:16.561Z,101213.06
2022-12-25T10:14:58.758Z,101213.88
2022-12-25T10:17:35.606Z,101213.94
2022-12-25T10:20:08.676Z,101216.56
2022-12-25T10:22:39.801Z,101208.81
2022-12-25T10:25:11.978Z,101212.34
2022-12-25T10:27:41.000Z,101205.47
2022-12-25T10:30:15.931Z,101207.09
2022-12-25T10:32:45.928Z,101214.91
2022-12-25T10:35:14.426Z,101214.81
2022-12-25T10:37:42.952Z,101210.59
2022-12-25T10:40:27.776Z,101218.28
2022-12-25T10:42:57.358Z,101225.13
2022-12-25T10:45:25.314Z,101220.88
2022-12-25T10:48:07.110Z,101220.91
2022-12-25T10:50:35.927Z,101221.78
2022-12-25T10:53:05.548Z,101218.38
2022-12-25T10:55:34.147Z,101219.28
2022-12-25T10:58:02.531Z,101213.25
2022-12-25T11:00:32.488Z,101226.97
2022-12-25T11:03:02.041Z,101229.56
2022-12-25T11:05:31.547Z,101221.91
2022-12-25T11:08:01.594Z,101217.56
2022-12-25T11:10:31.738Z,101219.34
2022-12-25T11:13:00.496Z,101217.66
2022-12-25T11:15:39.695Z,101203.94
2022-12-25T11:18:20.689Z,101208.28
2022-12-25T11:20:52.607Z,101209.16
2022-12-25T11:23:21.908Z,101192.84
2022-12-25T11:25:57.186Z,101190.28
2022-12-25T11:28:25.837Z,101190.31
2022-12-25T11:30:57.746Z,101195.44
2022-12-25T11:33:30.468Z,101192.88
2022-12-25T11:35:59.390Z,101189.41
2022-12-25T11:38:28.298Z,101182.53
2022-12-25T11:40:58.636Z,101188.56
2022-12-25T11:43:31.712Z,101189.47
2022-12-25T11:46:00.496Z,101194.63
2022-12-25T11:48:34.201Z,101188.66
2022-12-25T11:51:03.824Z,101187.78
2022-12-25T11:53:36.016Z,101187.81
2022-12-25T11:56:08.048Z,101170.63
2022-12-25T11:58:39.008Z,101170.69
2022-12-25T12:01:16.800Z,101160.38
2022-12-25T12:03:46.328Z,101167.19
2022-12-25T12:06:17.166Z,101173.25
2022-12-25T12:08:45.521Z,101173.28
2022-12-25T12:11:19.262Z,101167.22
2022-12-25T12:14:03.163Z,101182.75
2022-12-25T12:16:31.275Z,101190.47
2022-12-25T12:19:11.889Z,101190.47
2022-12-25T12:21:40.355Z,101193.84
2022-12-25T12:24:12.133Z,101181.00
2022-12-25T12:26:42.462Z,101183.56
2022-12-25T12:29:26.292Z,101186.16
2022-12-25T12:31:55.167Z,101173.28
2022-12-25T12:34:26.410Z,101179.31
2022-12-25T12:36:57.902Z,101166.41
2022-12-25T12:39:27.901Z,101177.59
2022-12-25T12:41:55.774Z,101180.16
2022-12-25T12:44:27.416Z,101181.06
2022-12-25T12:46:57.601Z,101180.16
2022-12-25T12:49:29.726Z,101193.91
2022-12-25T12:52:06.652Z,101190.50
2022-12-25T12:54:34.998Z,101183.63
2022-12-25T12:57:04.604Z,101183.59
2022-12-25T12:59:39.930Z,101184.44
2022-12-25T13:02:28.471Z,101189.59
2022-12-25T13:05:02.387Z,101191.31
2022-12-25T13:07:43.906Z,101189.59
2022-12-25T13:10:25.160Z,101192.97
2022-12-25T13:12:55.372Z,101188.75
2022-12-25T13:15:24.875Z,101185.28
2022-12-25T13:17:52.727Z,101184.44
2022-12-25T13:20:26.128Z,101188.75
2022-12-25T13:22:54.729Z,101188.72
2022-12-25T13:25:23.739Z,101183.56
2022-12-25T13:27:59.464Z,101183.50
2022-12-25T13:30:27.878Z,101171.50
2022-12-25T13:32:56.978Z,101169.81
2022-12-25T13:35:26.383Z,101165.53
2022-12-25T13:37:54.760Z,101165.53
2022-12-25T13:40:26.799Z,101163.81
2022-12-25T13:42:58.079Z,101158.69
2022-12-25T13:45:27.496Z,101144.91
2022-12-25T13:47:56.129Z,101141.50
2022-12-25T13:50:27.071Z,101130.31
2022-12-25T13:52:56.843Z,101135.44
2022-12-25T13:55:25.949Z,101132.00
2022-12-25T13:57:56.036Z,101127.69
2022-12-25T14:00:27.174Z,101117.38
2022-12-25T14:02:55.527Z,101119.97
2022-12-25T14:05:27.213Z,101107.97
2022-12-25T14:07:56.619Z,101112.25
2022-12-25T14:10:26.005Z,101111.38
2022-12-25T14:12:56.346Z,101114.84
2022-12-25T14:15:25.227Z,101113.97
2022-12-25T14:17:53.506Z,101114.81
2022-12-25T14:20:27.951Z,101109.69
2022-12-25T14:22:58.995Z,101113.97
2022-12-25T14:25:30.632Z,101102.81
2022-12-25T14:27:58.711Z,101096.78
2022-12-25T14:30:28.863Z,101086.47
2022-12-25T14:32:57.351Z,101083.88
2022-12-25T14:35:26.848Z,101077.88
2022-12-25T14:37:57.461Z,101079.59
2022-12-25T14:40:27.959Z,101079.59
2022-12-25T14:42:57.273Z,101091.63
2022-12-25T14:45:31.234Z,101088.19
2022-12-25T14:48:00.878Z,101087.31
2022-12-25T14:50:31.864Z,101094.19
2022-12-25T14:53:00.444Z,101095.91
2022-12-25T14:55:29.513Z,101093.28
2022-12-25T14:58:01.653Z,101095.88
2022-12-25T15:00:32.670Z,101092.47
2022-12-25T15:03:01.262Z,101095.00
2022-12-25T15:05:35.808Z,101097.59
2022-12-25T15:08:21.201Z,101092.47
2022-12-25T15:11:05.099Z,101099.34
2022-12-25T15:13:34.380Z,101094.19
2022-12-25T15:16:05.221Z,101077.88
2022-12-25T15:18:36.600Z,101080.44
2022-12-25T15:21:06.176Z,101078.72
2022-12-25T15:23:34.112Z,101070.94
2022-12-25T15:26:02.013Z,101061.53
2022-12-25T15:28:29.914Z,101057.22
2022-12-25T15:30:57.747Z,101057.25
2022-12-25T15:33:25.697Z,101053.81
2022-12-25T15:35:53.541Z,101050.34
2022-12-25T15:38:22.786Z,101051.22
2022-12-25T15:40:50.673Z,101036.56
2022-12-25T15:43:39.905Z,101039.19
2022-12-25T15:46:06.829Z,101029.72
2022-12-25T15:48:34.676Z,101017.69
2022-12-25T15:51:03.134Z,101028.00
2022-12-25T15:53:32.440Z,101023.69
2022-12-25T15:56:00.319Z,101027.13
2022-12-25T15:58:28.282Z,101022.81
2022-12-25T16:00:56.131Z,101019.44
2022-12-25T16:03:24.141Z,101014.22
2022-12-25T16:05:52.096Z,101000.50
2022-12-25T16:08:20.012Z,100996.22
2022-12-25T16:10:49.369Z,100995.38
2022-12-25T16:13:17.283Z,100997.94
2022-12-25T16:15:45.269Z,100991.88
2022-12-25T16:18:13.207Z,100989.31
2022-12-25T16:20:41.117Z,100998.75
2022-12-25T16:23:09.041Z,100995.31
2022-12-25T16:25:36.952Z,100997.88
2022-12-25T16:28:09.598Z,100994.44
2022-12-25T16:30:37.667Z,100990.16
2022-12-25T16:33:05.953Z,100991.88
2022-12-25T16:35:34.076Z,100991.03
2022-12-25T16:38:01.992Z,100989.31
2022-12-25T16:40:30.198Z,100979.88
2022-12-25T16:42:58.012Z,100982.44
2022-12-25T16:45:27.235Z,100980.72
2022-12-25T16:47:55.056Z,100980.72
2022-12-25T16:50:23.121Z,100983.31
2022-12-25T16:52:50.941Z,100988.47
2022-12-25T16:55:18.904Z,100988.47
2022-12-25T16:57:48.334Z,100977.28
2022-12-25T17:00:18.040Z,100983.28
2022-12-25T17:02:47.374Z,100983.31
2022-12-25T17:05:18.367Z,100979.03
2022-12-25T17:07:47.013Z,100973.88
2022-12-25T17:10:14.888Z,100965.25
2022-12-25T17:12:45.562Z,100967.78
2022-12-25T17:15:13.620Z,100959.22
2022-12-25T17:17:41.707Z,100956.63
2022-12-25T17:20:12.070Z,100954.06
2022-12-25T17:22:39.978Z,100958.34
2022-12-25T17:25:08.279Z,100950.59
2022-12-25T17:27:36.221Z,100942.03
2022-12-25T17:30:04.399Z,100939.44
2022-12-25T17:32:32.236Z,100924.78
2022-12-25T17:35:00.038Z,100921.38
2022-12-25T17:37:31.912Z,100923.97
2022-12-25T17:39:59.796Z,100920.53
2022-12-25T17:42:27.637Z,100924.81
2022-12-25T17:44:55.476Z,100917.91
2022-12-25T17:47:23.335Z,100909.31
2022-12-25T17:49:51.413Z,100906.75
2022-12-25T17:52:19.272Z,100904.19
2022-12-25T17:54:48.441Z,100895.59
2022-12-25T17:57:16.289Z,100882.69
2022-12-25T17:59:44.068Z,100876.66
2022-12-25T18:02:12.579Z,100880.97
2022-12-25T18:04:40.509Z,100873.22
2022-12-25T18:07:08.409Z,100873.22
2022-12-25T18:09:36.280Z,100871.53
2022-12-25T18:12:06.116Z,100862.03
2022-12-25T18:14:33.972Z,100855.19
2022-12-25T18:17:01.876Z,100858.59
2022-12-25T18:19:29.771Z,100840.53
2022-12-25T18:21:57.675Z,100857.75
2022-12-25T18:24:25.597Z,100850.00
2022-12-25T18:26:53.430Z,100846.59
2022-12-25T18:29:22.609Z,100847.44
2022-12-25T18:31:50.618Z,100842.25
2022-12-25T18:34:18.710Z,100847.38
2022-12-25T18:36:46.667Z,100835.41
2022-12-25T18:39:14.524Z,100834.50
2022-12-25T18:41:56.368Z,100825.06
2022-12-25T18:44:25.656Z,100822.44
2022-12-25T18:46:53.866Z,100810.47
2022-12-25T18:49:21.747Z,100815.56
2022-12-25T18:51:50.505Z,100804.41
2022-12-25T18:54:19.194Z,100796.66
2022-12-25T18:56:52.093Z,100797.47
2022-12-25T18:59:21.179Z,100800.94
2022-12-25T19:01:50.666Z,100787.22
2022-12-25T19:04:18.652Z,100790.66
2022-12-25T19:06:47.930Z,100783.75
2022-12-25T19:09:15.860Z,100776.03
2022-12-25T19:11:46.816Z,100764.84
2022-12-25T19:14:15.615Z,100770.88
2022-12-25T19:16:43.947Z,100760.44
2022-12-25T19:19:15.032Z,100763.06
2022-12-25T19:21:43.165Z,100757.06
2022-12-25T19:24:11.181Z,100757.91
2022-12-25T19:26:39.246Z,100751.09
2022-12-25T19:29:07.166Z,100742.47
2022-12-25T19:31:37.142Z,100743.34
2022-12-25T19:34:05.144Z,100733.88
2022-12-25T19:36:34.697Z,100738.19
2022-12-25T19:39:02.619Z,100730.34
2022-12-25T19:41:30.790Z,100728.66
2022-12-25T19:43:58.892Z,100715.72
2022-12-25T19:46:29.394Z,100709.75
2022-12-25T19:48:59.080Z,100703.75
2022-12-25T19:51:28.737Z,100699.44
2022-12-25T19:53:57.963Z,100700.28
2022-12-25T19:56:27.035Z,100696.03
2022-12-25T19:58:55.044Z,100684.78
2022-12-25T20:01:25.527Z,100694.16
2022-12-25T20:03:53.568Z,100687.34
2022-12-25T20:06:24.858Z,100679.59
2022-12-25T20:08:54.279Z,100671.78
2022-12-25T20:11:25.524Z,100667.53
2022-12-25T20:13:53.616Z,100667.53
2022-12-25T20:16:22.984Z,100671.03
2022-12-25T20:18:51.114Z,100664.16
2022-12-25T20:21:21.087Z,100665.06
2022-12-25T20:23:50.770Z,100655.56
2022-12-25T20:26:20.496Z,100647.78
2022-12-25T20:28:49.842Z,100649.50
2022-12-25T20:31:19.277Z,100646.06
2022-12-25T20:33:47.809Z,100642.63
2022-12-25T20:36:15.943Z,100639.19
2022-12-25T20:38:43.891Z,100628.91
2022-12-25T20:41:29.695Z,100623.66
2022-12-25T20:43:59.919Z,100618.59
2022-12-25T20:46:28.373Z,100622.88
2022-12-25T20:48:56.350Z,100603.91
2022-12-25T20:51:25.672Z,100600.53
2022-12-25T20:53:54.228Z,100590.16
2022-12-25T20:56:24.143Z,100602.16
2022-12-25T20:58:54.483Z,100603.06
2022-12-25T21:01:24.291Z,100599.72
2022-12-25T21:03:52.991Z,100586.75
2022-12-25T21:06:20.972Z,100591.94
2022-12-25T21:08:48.975Z,100586.66
2022-12-25T21:11:17.934Z,100590.22
2022-12-25T21:13:46.738Z,100591.06
2022-12-25T21:16:18.302Z,100589.38
2022-12-25T21:18:49.066Z,100586.78
2022-12-25T21:21:17.115Z,100580.75
2022-12-25T21:23:45.549Z,100580.69
2022-12-25T21:26:14.117Z,100577.25
2022-12-25T21:28:42.033Z,100577.44
2022-12-25T21:31:10.127Z,100569.72
2022-12-25T21:33:53.443Z,100559.28
2022-12-25T21:36:26.704Z,100561.97
2022-12-25T21:38:56.630Z,100558.53
2022-12-25T21:41:25.113Z,100564.50
2022-12-25T21:43:53.030Z,100550.78
2022-12-25T21:46:21.043Z,100548.25
2022-12-25T21:48:48.929Z,100537.09
2022-12-25T21:51:36.101Z,100549.13
2022-12-25T21:54:05.909Z,100543.16
2022-12-25T21:56:41.383Z,100545.75
2022-12-25T21:59:11.918Z,100537.09
2022-12-25T22:01:39.872Z,100542.25
2022-12-25T22:04:09.481Z,100536.22
2022-12-25T22:06:54.560Z,100543.97
2022-12-25T22:09:24.447Z,100544.88
2022-12-25T22:12:09.668Z,100551.75
2022-12-25T22:14:55.261Z,100549.13
2022-12-25T22:17:42.906Z,100544.78
2022-12-25T22:20:13.050Z,100544.81
2022-12-25T22:22:40.913Z,100536.28
2022-12-25T22:25:10.846Z,100538.81
2022-12-25T22:27:40.430Z,100532.78
2022-12-25T22:30:11.768Z,100530.22
2022-12-25T22:32:39.850Z,100533.66
2022-12-25T22:35:08.345Z,100527.69
2022-12-25T22:37:36.811Z,100512.19
2022-12-25T22:40:05.902Z,100504.38
2022-12-25T22:42:35.145Z,100507.81
2022-12-25T22:45:03.019Z,100500.97
2022-12-25T22:47:30.912Z,100504.47
2022-12-25T22:49:58.788Z,100503.56
2022-12-25T22:52:26.622Z,100489.75
2022-12-25T22:54:54.460Z,100484.66
2022-12-25T22:57:22.394Z,100463.16
2022-12-25T22:59:52.472Z,100459.72
2022-12-25T23:02:20.698Z,100454.63
2022-12-25T23:04:48.942Z,100441.72
2022-12-25T23:07:17.024Z,100430.59
2022-12-25T23:09:45.149Z,100434.78
2022-12-25T23:12:33.603Z,100418.53
2022-12-25T23:15:01.859Z,100419.34
2022-12-25T23:17:47.384Z,100415.94
2022-12-25T23:20:33.309Z,100421.16
2022-12-25T23:23:19.170Z,100416.84
2022-12-25T23:26:04.221Z,100416.84
2022-12-25T23:28:49.585Z,100427.97
2022-12-25T23:31:19.197Z,100425.38
2022-12-25T23:33:47.087Z,100429.69
2022-12-25T23:36:14.914Z,100421.78
2022-12-25T23:38:42.723Z,100429.56
2022-12-25T23:41:10.730Z,100432.19
2022-12-25T23:43:38.681Z,100439.03
2022-12-25T23:46:06.886Z,100431.28
2022-12-25T23:48:36.144Z,100430.44
2022-12-25T23:51:04.818Z,100432.22
2022-12-25T23:53:32.845Z,100425.34
2022-12-25T23:56:00.811Z,100430.50
2022-12-25T23:58:29.585Z,100436.50
